Fort Logan, Colorado
Current Conditions -  °F | °C
As of 10:53 PM on Sunday 25 Jan 2015 (Local Time) from KAPA Reporting Station
Clear Clear  
Wind Chill: 36°   Ceiling: Unl
Heat Index: 41°   Visibility: 10mi
Dew Point: 25°   Wind: 8mph
Humidity: 53%   Direction: 250°WSW
Pressure: 30.23"   Gusts: NA
Location:  39.6516°N, 105.039°W
Report Text: KAPA 260553Z 25007KT 10SM CLR 05/M04 A3023 RMK AO2 SLP225 T00501039 10117 20033 53010
Loading
Personal Weather Stations






























Interactive Weather Map New forecast layout! Learn more

10-Day Weather Forecast

Advertisements
Track Severe Weather on mobile